• Join FlightAware (Why Join?)
  • Login
  • US Flag 
07:36PM EST


 

Airport Tracker/Info


-or-


 

Live Flight TrackerFlight Track Log ✈ FIV576 ✈ 03-Nov-2013 ✈ KIAH - KDWH

Flight Track Log - Related Links

Times and Time Zones

All times are in EST time to prevent confusion due to time zone crossing. See the FIV576 flight status page for this flight to view local times or setup timezone preferences in your user account.

Time Position Orientation Groundspeed Altitude Reporting Facility
EST Latitude Longitude Course Direction KTS MPH feet Rate Location/Type
06:17PM 29.9819 -95.3122 79° East 218 251 2,900  Level Houston Center
06:18PM 30.0158 -95.3117 North 236 272 3,000 60 Climbing Houston Center
06:18PM 30.0494 -95.3161 353° North 223 257 3,000  Level Houston Center
06:19PM 30.0769 -95.3200 353° North 228 262 3,000  Level Houston Center
06:19PM 30.1089 -95.3233 355° North 219 252 3,000  Level Houston Center
06:20PM 30.1375 -95.3275 353° North 222 255 3,000  Level Houston Center
06:20PM 30.1728 -95.3325 353° North 217 250 3,000  Level Houston Center
06:21PM 30.1983 -95.3342 357° North 220 253 3,000  Level Houston Center
06:21PM 30.2367 -95.3417 350° North 229 264 3,000  Level Houston Center
06:22PM 30.2617 -95.3703 315° West 233 268 3,000  Level Houston Center
06:22PM 30.2689 -95.3958 288° West 205 236 3,000  Level Houston Center
06:23PM 30.2819 -95.4294 294° West 210 242 3,000  Level Houston Center
06:23PM 30.2914 -95.4583 291° West 195 224 3,000 -420 Level Houston Center
06:24PM 30.3000 -95.4878 289° West 197 227 2,600 -900 Descending Houston Center
06:24PM 30.3053 -95.5197 281° West 195 224 2,100 -600 Descending Houston Center
06:25PM 30.3108 -95.5492 282° West 196 226 2,000  Descending Houston Center
06:25PM 30.2931 -95.5694 225° Southwest 166 191 2,100  Climbing Houston Center
06:26PM 30.2772 -95.5842 219° Southwest 173 199 2,000 -120 Descending Houston Center
06:26PM 30.2564 -95.5836 179° South 128 147 2,000  Level Houston Center
06:27PM 30.2397 -95.5786 165° South 141 162 2,000  Level Houston Center
06:27PM 30.2158 -95.5764 175° South 140 161 2,000  Level Houston Center
06:28PM 30.1911 -95.5708 169° South 145 167 2,000  Level Houston Center
06:28PM 30.1714 -95.5719 183° South 164 189 2,000 -240 Level Houston Center
06:29PM 30.1492 -95.5664 168° South 150 173 1,800 -420 Descending Houston Center
06:29PM 30.1350 -95.5642 172° South 121 139 1,600 -600 Descending Houston Center
06:30PM 30.1169 -95.5628 176° South 133 153 1,200 -720 Descending Houston Center
06:30PM 30.1031 -95.5583 165° South 119 137 900 -420 Descending Houston Center
06:31PM 30.0828 -95.5558 174° South 123 142 800 -180 Descending Houston Center